createdAt,value
2023-04-04T00:01:13.084Z,2.30
2023-04-04T00:03:43.446Z,2.30
2023-04-04T00:06:12.625Z,1.70
2023-04-04T00:08:41.610Z,2.60
2023-04-04T00:11:16.544Z,2.20
2023-04-04T00:13:46.665Z,2.00
2023-04-04T00:16:15.271Z,1.50
2023-04-04T00:18:43.946Z,3.00
2023-04-04T00:21:12.295Z,1.80
2023-04-04T00:23:40.811Z,2.70
2023-04-04T00:26:09.496Z,2.10
2023-04-04T00:28:38.182Z,4.20
2023-04-04T00:31:06.912Z,3.50
2023-04-04T00:33:37.311Z,3.10
2023-04-04T00:36:06.123Z,2.10
2023-04-04T00:38:37.960Z,2.10
2023-04-04T00:41:07.052Z,2.50
2023-04-04T00:43:36.764Z,2.30
2023-04-04T00:46:05.599Z,2.90
2023-04-04T00:48:34.247Z,3.10
2023-04-04T00:51:02.933Z,2.60
2023-04-04T00:53:36.133Z,2.90
2023-04-04T00:56:04.713Z,2.20
2023-04-04T00:58:34.221Z,3.80
2023-04-04T01:01:02.928Z,2.60
2023-04-04T01:03:34.192Z,2.30
2023-04-04T01:06:03.150Z,2.80
2023-04-04T01:08:31.761Z,3.20
2023-04-04T01:11:01.555Z,3.00
2023-04-04T01:13:31.568Z,2.80
2023-04-04T01:16:03.123Z,2.10
2023-04-04T01:18:32.938Z,2.10
2023-04-04T01:21:05.008Z,3.80
2023-04-04T01:23:57.863Z,3.50
2023-04-04T01:26:30.847Z,4.00
2023-04-04T01:29:02.713Z,3.00
2023-04-04T01:31:46.761Z,2.50
2023-04-04T01:34:24.875Z,2.80
2023-04-04T01:37:03.186Z,3.70
2023-04-04T01:39:45.192Z,2.80
2023-04-04T01:42:15.225Z,3.80
2023-04-04T01:44:46.146Z,4.40
2023-04-04T01:47:15.554Z,4.60
2023-04-04T01:49:44.958Z,4.30
2023-04-04T01:52:16.000Z,2.90
2023-04-04T01:54:45.099Z,3.00
2023-04-04T01:57:14.305Z,2.90
2023-04-04T01:59:43.096Z,3.80
2023-04-04T02:02:12.802Z,3.70
2023-04-04T02:04:41.650Z,3.70
2023-04-04T02:07:10.793Z,3.80
2023-04-04T02:09:40.014Z,3.50
2023-04-04T02:12:09.295Z,4.20
2023-04-04T02:14:38.289Z,2.70
2023-04-04T02:17:07.284Z,3.70
2023-04-04T02:19:36.175Z,4.50
2023-04-04T02:22:09.069Z,2.90
2023-04-04T02:24:38.263Z,2.80
2023-04-04T02:27:07.052Z,2.60
2023-04-04T02:29:35.843Z,2.60
2023-04-04T02:32:04.534Z,4.00
2023-04-04T02:34:34.144Z,1.90
2023-04-04T02:37:04.259Z,2.10
2023-04-04T02:39:33.253Z,3.40
2023-04-04T02:42:02.149Z,5.50
2023-04-04T02:44:31.144Z,3.30
2023-04-04T02:47:03.031Z,3.60
2023-04-04T02:52:02.020Z,3.50
2023-04-04T02:54:34.721Z,3.50
2023-04-04T02:57:05.028Z,2.60
2023-04-04T03:02:02.866Z,4.10
2023-04-04T03:04:33.040Z,3.10
2023-04-04T03:07:01.422Z,3.20
2023-04-04T03:09:31.234Z,5.00
2023-04-04T03:12:01.153Z,2.60
2023-04-04T03:14:35.283Z,3.70
2023-04-04T03:17:04.057Z,3.30
2023-04-04T03:19:33.359Z,3.20
2023-04-04T03:22:01.845Z,3.60
2023-04-04T03:24:32.475Z,3.80
2023-04-04T03:27:02.190Z,5.10
2023-04-04T03:32:02.395Z,5.40
2023-04-04T03:34:32.246Z,4.40
2023-04-04T03:37:01.134Z,3.10
2023-04-04T03:39:30.535Z,5.10
2023-04-04T03:41:59.230Z,2.90
2023-04-04T03:44:27.715Z,4.70
2023-04-04T03:46:56.601Z,3.00
2023-04-04T03:49:27.438Z,4.00
2023-04-04T03:51:56.229Z,5.60
2023-04-04T03:54:26.672Z,3.90
2023-04-04T03:56:55.503Z,4.00
2023-04-04T03:59:24.444Z,4.80
2023-04-04T04:01:53.230Z,3.60
2023-04-04T04:04:21.775Z,3.20
2023-04-04T04:06:50.502Z,3.90
2023-04-04T04:09:19.395Z,4.40
2023-04-04T04:11:48.905Z,5.40
2023-04-04T04:14:18.309Z,6.90
2023-04-04T04:16:47.406Z,5.10
2023-04-04T04:19:18.137Z,4.70
2023-04-04T04:21:46.934Z,5.20
2023-04-04T04:24:15.930Z,4.50
2023-04-04T04:26:45.738Z,4.90
2023-04-04T04:29:17.611Z,7.90
2023-04-04T04:31:46.220Z,12.90
2023-04-04T04:34:14.672Z,13.70
2023-04-04T04:36:43.563Z,10.70
2023-04-04T04:39:23.110Z,5.50
2023-04-04T04:42:10.227Z,7.90
2023-04-04T04:44:43.522Z,5.80
2023-04-04T04:47:12.316Z,5.00
2023-04-04T04:49:43.873Z,6.20
2023-04-04T04:52:13.893Z,6.50
2023-04-04T04:54:46.938Z,6.30
2023-04-04T04:57:15.463Z,6.80
2023-04-04T04:59:44.561Z,5.40
2023-04-04T05:02:17.004Z,7.20
2023-04-04T05:04:47.371Z,6.50
2023-04-04T05:07:16.664Z,5.30
2023-04-04T05:09:51.300Z,5.80
2023-04-04T05:12:22.233Z,5.90
2023-04-04T05:14:52.352Z,6.40
2023-04-04T05:17:23.746Z,6.00
2023-04-04T05:19:54.471Z,5.50
2023-04-04T05:22:23.427Z,5.20
2023-04-04T05:24:53.353Z,7.10
2023-04-04T05:27:24.900Z,6.40
2023-04-04T05:29:58.433Z,6.10
2023-04-04T05:32:35.854Z,5.50
2023-04-04T05:35:09.828Z,7.20
2023-04-04T05:37:41.463Z,7.60
2023-04-04T05:40:16.294Z,6.90
2023-04-04T05:42:57.169Z,8.70
2023-04-04T05:45:27.596Z,6.40
2023-04-04T05:47:57.553Z,5.80
2023-04-04T05:50:27.336Z,4.90
2023-04-04T05:53:03.307Z,5.70
2023-04-04T05:58:04.346Z,5.40
2023-04-04T06:00:45.537Z,7.30
2023-04-04T06:03:14.883Z,7.00
2023-04-04T06:05:44.687Z,7.10
2023-04-04T06:08:14.666Z,6.30
2023-04-04T06:10:43.050Z,8.20
2023-04-04T06:13:11.751Z,6.80
2023-04-04T06:15:41.841Z,7.10
2023-04-04T06:18:10.693Z,6.90
2023-04-04T06:20:40.145Z,5.80
2023-04-04T06:23:10.315Z,6.50
2023-04-04T06:25:42.020Z,5.70
2023-04-04T06:28:11.626Z,7.40
2023-04-04T06:30:40.605Z,7.40
2023-04-04T06:33:12.395Z,7.10
2023-04-04T06:35:45.690Z,7.00
2023-04-04T06:38:15.901Z,7.50
2023-04-04T06:40:45.712Z,7.50
2023-04-04T06:43:14.381Z,7.40
2023-04-04T06:45:46.874Z,7.80
2023-04-04T06:48:16.792Z,8.30
2023-04-04T06:50:45.177Z,7.10
2023-04-04T06:53:16.005Z,7.80
2023-04-04T06:58:19.422Z,6.80
2023-04-04T07:00:48.231Z,8.60
2023-04-04T07:03:18.190Z,8.80
2023-04-04T07:05:46.836Z,6.30
2023-04-04T07:08:16.015Z,7.90
2023-04-04T07:10:44.755Z,8.90
2023-04-04T07:13:14.925Z,9.30
2023-04-04T07:15:49.053Z,7.80
2023-04-04T07:18:17.419Z,7.50
2023-04-04T07:20:52.660Z,7.20
2023-04-04T07:23:26.365Z,9.90
2023-04-04T07:25:56.194Z,9.80
2023-04-04T07:28:25.481Z,7.40
2023-04-04T07:30:59.767Z,6.20
2023-04-04T07:33:29.506Z,7.30
2023-04-04T07:35:58.256Z,7.30
2023-04-04T07:38:35.078Z,7.70
2023-04-04T07:41:04.373Z,7.60
2023-04-04T07:43:34.292Z,8.90
2023-04-04T07:46:02.812Z,7.80
2023-04-04T07:48:31.978Z,8.60
2023-04-04T07:51:04.663Z,7.50
2023-04-04T07:53:33.345Z,7.00
2023-04-04T07:56:06.938Z,8.70
2023-04-04T07:58:37.784Z,7.00
2023-04-04T08:01:06.768Z,8.60
2023-04-04T08:03:37.007Z,9.70
2023-04-04T08:06:06.391Z,7.30
2023-04-04T08:08:34.772Z,7.40
2023-04-04T08:11:04.180Z,7.70
2023-04-04T08:16:02.205Z,6.30
2023-04-04T08:18:31.772Z,6.40
2023-04-04T08:21:00.155Z,8.10
2023-04-04T08:23:30.168Z,8.30
2023-04-04T08:26:00.393Z,9.50
2023-04-04T08:28:28.806Z,7.00
2023-04-04T08:30:57.258Z,7.80
2023-04-04T08:33:44.340Z,6.90
2023-04-04T08:36:16.411Z,7.50
2023-04-04T08:38:47.990Z,6.90
2023-04-04T08:41:16.450Z,7.30
2023-04-04T08:43:54.811Z,8.20
2023-04-04T08:46:24.465Z,6.80
2023-04-04T08:48:54.008Z,7.30
2023-04-04T08:51:22.407Z,6.10
2023-04-04T08:53:55.074Z,5.80
2023-04-04T08:56:24.071Z,6.40
2023-04-04T08:58:52.496Z,6.90
2023-04-04T09:01:21.253Z,6.60
2023-04-04T09:03:59.346Z,5.50
2023-04-04T09:06:28.142Z,5.70
2023-04-04T09:08:57.786Z,6.10
2023-04-04T09:11:26.638Z,5.90
2023-04-04T09:13:55.122Z,6.40
2023-04-04T09:16:24.248Z,7.30
2023-04-04T09:18:53.219Z,4.70
2023-04-04T09:21:24.049Z,5.50
2023-04-04T09:24:00.525Z,4.90
2023-04-04T09:26:29.105Z,7.10
2023-04-04T09:28:57.690Z,5.70
2023-04-04T09:31:27.638Z,5.50
2023-04-04T09:33:56.100Z,5.70
2023-04-04T09:36:24.515Z,7.80
2023-04-04T09:38:53.059Z,6.10
2023-04-04T09:41:21.839Z,5.90
2023-04-04T09:43:50.327Z,5.10
2023-04-04T09:46:21.836Z,3.70
2023-04-04T09:51:18.542Z,5.60
2023-04-04T09:53:51.015Z,6.40
2023-04-04T09:56:20.007Z,6.80
2023-04-04T09:59:02.711Z,5.70
2023-04-04T10:01:34.143Z,5.00
2023-04-04T10:04:04.426Z,5.30
2023-04-04T10:06:33.501Z,6.00
2023-04-04T10:09:08.140Z,5.20
2023-04-04T10:11:37.026Z,4.30
2023-04-04T10:14:05.608Z,4.90
2023-04-04T10:16:35.152Z,5.40
2023-04-04T10:19:04.845Z,3.80
2023-04-04T10:21:33.939Z,4.50
2023-04-04T10:24:05.076Z,3.60
2023-04-04T10:26:33.554Z,4.70
2023-04-04T10:29:02.346Z,5.00
2023-04-04T10:31:30.911Z,5.10
2023-04-04T10:34:22.863Z,3.40
2023-04-04T10:36:55.071Z,4.20
2023-04-04T10:39:27.527Z,4.30
2023-04-04T10:41:56.810Z,5.50
2023-04-04T10:44:34.009Z,4.90
2023-04-04T10:47:18.367Z,5.60
2023-04-04T10:49:47.652Z,5.00
2023-04-04T10:52:17.080Z,4.40
2023-04-04T10:54:45.955Z,4.10
2023-04-04T10:57:14.546Z,4.50
2023-04-04T11:00:10.895Z,5.80
2023-04-04T11:02:44.962Z,5.30
2023-04-04T11:05:18.556Z,5.80
2023-04-04T11:08:00.685Z,4.40
2023-04-04T11:10:41.672Z,5.10
2023-04-04T11:13:35.901Z,5.80
2023-04-04T11:16:08.030Z,4.40
2023-04-04T11:18:45.767Z,4.90
2023-04-04T11:21:16.974Z,4.90
2023-04-04T11:23:48.542Z,5.80
2023-04-04T11:26:26.675Z,5.00
2023-04-04T11:28:58.868Z,8.10
2023-04-04T11:31:33.906Z,7.50
2023-04-04T11:34:06.522Z,21.70
2023-04-04T11:36:38.001Z,6.40
2023-04-04T11:39:10.761Z,7.20
2023-04-04T11:41:57.876Z,13.90
2023-04-04T11:44:30.878Z,9.20
2023-04-04T11:47:11.979Z,10.40
2023-04-04T11:49:42.859Z,6.50
2023-04-04T11:54:45.254Z,11.70
2023-04-04T11:57:14.998Z,10.80
2023-04-04T11:59:45.769Z,7.30
2023-04-04T12:02:32.175Z,6.50
2023-04-04T12:05:01.237Z,6.70
2023-04-04T12:07:32.475Z,6.40
2023-04-04T12:10:01.887Z,6.80
2023-04-04T12:12:31.391Z,8.30
2023-04-04T12:15:06.622Z,6.80
2023-04-04T12:17:44.584Z,6.60
2023-04-04T12:22:45.799Z,6.60
2023-04-04T12:30:16.275Z,5.20
2023-04-04T12:32:46.334Z,5.80
2023-04-04T12:35:17.347Z,5.90
2023-04-04T12:38:07.676Z,6.10
2023-04-04T12:40:38.962Z,6.60
2023-04-04T12:43:09.653Z,6.50
2023-04-04T12:45:40.546Z,7.90
2023-04-04T12:48:14.208Z,7.00
2023-04-04T12:51:10.286Z,9.10
2023-04-04T12:53:53.855Z,5.60
2023-04-04T12:56:25.375Z,6.20
2023-04-04T12:58:53.991Z,6.40
2023-04-04T13:01:22.391Z,5.70
2023-04-04T13:03:52.488Z,4.80
2023-04-04T13:06:21.755Z,5.90
2023-04-04T13:08:53.427Z,5.10
2023-04-04T13:11:22.113Z,5.90
2023-04-04T13:14:01.882Z,4.50
2023-04-04T13:16:31.417Z,5.50
2023-04-04T13:19:04.261Z,5.10
2023-04-04T13:21:33.309Z,7.50
2023-04-04T13:24:02.607Z,6.60
2023-04-04T13:26:31.872Z,8.40
2023-04-04T13:29:00.340Z,5.20
2023-04-04T13:31:35.378Z,6.20
2023-04-04T13:34:04.283Z,5.30
2023-04-04T13:36:32.634Z,5.70
2023-04-04T13:39:01.956Z,5.30
2023-04-04T13:41:30.848Z,5.40
2023-04-04T13:44:00.252Z,5.10
2023-04-04T13:46:29.592Z,5.70
2023-04-04T13:48:58.256Z,6.40
2023-04-04T13:51:26.932Z,5.70
2023-04-04T13:53:55.654Z,5.90
2023-04-04T13:56:24.979Z,5.90
2023-04-04T13:58:54.366Z,8.20
2023-04-04T14:01:24.918Z,8.30
2023-04-04T14:03:54.610Z,6.80
2023-04-04T14:06:23.786Z,6.70
2023-04-04T14:08:52.981Z,8.70
2023-04-04T14:13:52.573Z,7.40
2023-04-04T14:18:50.594Z,9.20
2023-04-04T14:21:19.180Z,10.40
2023-04-04T14:23:47.777Z,8.70
2023-04-04T14:26:17.168Z,11.70
2023-04-04T14:28:46.881Z,9.60
2023-04-04T14:31:15.700Z,8.20
2023-04-04T14:33:44.269Z,7.70
2023-04-04T14:36:12.661Z,6.90
2023-04-04T14:38:41.023Z,8.10
2023-04-04T14:41:09.810Z,8.20
2023-04-04T14:43:38.603Z,8.00
2023-04-04T14:46:09.268Z,9.10
2023-04-04T14:48:37.826Z,7.60
2023-04-04T14:51:06.307Z,8.80
2023-04-04T14:53:35.100Z,10.30
2023-04-04T14:56:03.590Z,9.90
2023-04-04T14:58:34.213Z,7.60
2023-04-04T15:01:02.937Z,7.30
2023-04-04T15:03:41.737Z,7.40
2023-04-04T15:06:10.520Z,7.10
2023-04-04T15:08:38.901Z,8.30
2023-04-04T15:11:07.488Z,8.00
2023-04-04T15:13:36.995Z,7.40
2023-04-04T15:16:06.307Z,8.90
2023-04-04T15:18:35.497Z,7.40
2023-04-04T15:21:04.853Z,6.10
2023-04-04T15:23:33.796Z,5.80
2023-04-04T15:26:03.507Z,6.40
2023-04-04T15:28:33.841Z,8.00
2023-04-04T15:31:04.297Z,7.80
2023-04-04T15:33:33.157Z,6.00
2023-04-04T15:36:01.432Z,8.50
2023-04-04T15:38:30.434Z,7.60
2023-04-04T15:40:59.427Z,9.70
2023-04-04T15:43:28.229Z,7.40
2023-04-04T15:45:56.957Z,6.20
2023-04-04T15:48:25.590Z,5.20
2023-04-04T15:50:58.689Z,5.10
2023-04-04T15:53:27.588Z,5.70
2023-04-04T15:55:56.366Z,4.80
2023-04-04T15:58:26.191Z,8.30
2023-04-04T16:00:57.426Z,7.10
2023-04-04T16:03:27.501Z,6.20
2023-04-04T16:05:56.647Z,6.40
2023-04-04T16:08:25.134Z,7.00
2023-04-04T16:10:53.816Z,5.70
2023-04-04T16:13:23.021Z,5.00
2023-04-04T16:15:55.966Z,5.00
2023-04-04T16:18:27.603Z,5.90
2023-04-04T16:20:56.561Z,8.80
2023-04-04T16:23:25.756Z,4.30
2023-04-04T16:25:55.368Z,6.60
2023-04-04T16:28:23.747Z,6.20
2023-04-04T16:30:53.151Z,5.90
2023-04-04T16:33:24.001Z,5.50
2023-04-04T16:35:52.491Z,5.80
2023-04-04T16:38:21.877Z,7.60
2023-04-04T16:40:50.875Z,5.90
2023-04-04T16:43:19.266Z,5.20
2023-04-04T16:45:48.248Z,7.20
2023-04-04T16:48:17.186Z,7.00
2023-04-04T16:50:47.671Z,5.60
2023-04-04T16:53:16.573Z,5.20
2023-04-04T16:55:44.946Z,6.80
2023-04-04T16:58:14.715Z,5.90
2023-04-04T17:00:44.226Z,7.40
2023-04-04T17:03:16.846Z,6.90
2023-04-04T17:05:47.373Z,6.60
2023-04-04T17:08:15.736Z,5.80
2023-04-04T17:10:44.141Z,6.30
2023-04-04T17:13:12.617Z,6.60
2023-04-04T17:15:42.231Z,8.20
2023-04-04T17:18:11.179Z,5.70
2023-04-04T17:20:39.970Z,6.90
2023-04-04T17:23:08.603Z,7.40
2023-04-04T17:25:37.296Z,7.40
2023-04-04T17:28:06.588Z,7.90
2023-04-04T17:30:35.700Z,7.20
2023-04-04T17:33:05.645Z,7.50
2023-04-04T17:35:34.186Z,7.90
2023-04-04T17:38:08.200Z,9.10
2023-04-04T17:40:37.416Z,9.60
2023-04-04T17:43:06.295Z,8.30
2023-04-04T17:45:35.292Z,8.90
2023-04-04T17:48:04.274Z,8.40
2023-04-04T17:50:33.899Z,11.70
2023-04-04T17:53:03.000Z,8.50
2023-04-04T17:55:32.316Z,8.50
2023-04-04T17:58:01.194Z,9.70
2023-04-04T18:00:30.617Z,9.70
2023-04-04T18:05:29.115Z,11.60
2023-04-04T18:07:58.502Z,11.00
2023-04-04T18:10:27.392Z,9.60
2023-04-04T18:12:59.563Z,8.90
2023-04-04T18:15:28.878Z,9.00
2023-04-04T18:17:58.598Z,11.00
2023-04-04T18:20:34.495Z,9.60
2023-04-04T18:23:07.013Z,10.00
2023-04-04T18:25:35.395Z,9.30
2023-04-04T18:28:04.183Z,10.10
2023-04-04T18:30:35.583Z,10.20
2023-04-04T18:33:07.654Z,11.70
2023-04-04T18:35:38.379Z,9.00
2023-04-04T18:38:07.641Z,11.40
2023-04-04T18:40:37.393Z,6.90
2023-04-04T18:43:06.344Z,16.90
2023-04-04T18:45:40.607Z,11.40
2023-04-04T18:48:12.011Z,13.10
2023-04-04T18:50:41.190Z,11.40
2023-04-04T18:53:09.694Z,10.30
2023-04-04T18:55:39.613Z,8.70
2023-04-04T18:58:08.625Z,8.00
2023-04-04T19:00:37.332Z,6.50
2023-04-04T19:03:08.119Z,7.10
2023-04-04T19:05:37.752Z,7.20
2023-04-04T19:08:10.837Z,10.00
2023-04-04T19:10:39.620Z,8.40
2023-04-04T19:13:12.511Z,9.50
2023-04-04T19:15:41.614Z,6.30
2023-04-04T19:18:11.346Z,6.50
2023-04-04T19:20:42.379Z,6.90
2023-04-04T19:23:15.763Z,5.80
2023-04-04T19:25:44.144Z,5.30
2023-04-04T19:28:12.832Z,7.20
2023-04-04T19:30:50.150Z,6.70
2023-04-04T19:33:23.537Z,6.10
2023-04-04T19:36:12.231Z,6.90
2023-04-04T19:38:42.908Z,8.80
2023-04-04T19:41:32.894Z,7.30
2023-04-04T19:44:02.406Z,6.80
2023-04-04T19:46:33.220Z,7.40
2023-04-04T19:49:03.457Z,11.20
2023-04-04T19:51:43.519Z,5.80
2023-04-04T19:56:41.305Z,6.00
2023-04-04T19:59:36.951Z,6.50
2023-04-04T20:02:06.356Z,8.00
2023-04-04T20:04:35.082Z,7.50
2023-04-04T20:07:03.599Z,9.00
2023-04-04T20:09:34.944Z,8.00
2023-04-04T20:12:03.531Z,5.20
2023-04-04T20:14:32.777Z,5.30
2023-04-04T20:17:01.215Z,6.60
2023-04-04T20:19:30.333Z,4.50
2023-04-04T20:21:59.096Z,6.10
2023-04-04T20:24:31.172Z,6.00
2023-04-04T20:27:00.083Z,5.40
2023-04-04T20:29:35.808Z,4.70
2023-04-04T20:32:08.559Z,5.00
2023-04-04T20:34:45.761Z,5.70
2023-04-04T20:37:22.393Z,8.00
2023-04-04T20:39:55.804Z,5.20
2023-04-04T20:42:38.775Z,7.40
2023-04-04T20:45:10.303Z,5.00
2023-04-04T20:47:50.419Z,4.70
2023-04-04T20:52:58.987Z,6.00
2023-04-04T20:55:32.273Z,7.90
2023-04-04T20:58:32.140Z,5.70
2023-04-04T21:01:01.597Z,4.70
2023-04-04T21:03:37.807Z,4.70
2023-04-04T21:06:10.715Z,5.90
2023-04-04T21:08:44.001Z,5.70
2023-04-04T21:11:12.811Z,5.40
2023-04-04T21:13:43.744Z,5.40
2023-04-04T21:16:17.029Z,6.30
2023-04-04T21:18:46.625Z,5.20
2023-04-04T21:21:19.749Z,4.10
2023-04-04T21:23:53.751Z,4.90
2023-04-04T21:26:33.397Z,4.90
2023-04-04T21:29:05.279Z,5.30
2023-04-04T21:31:41.080Z,5.50
2023-04-04T21:34:10.796Z,3.80
2023-04-04T21:36:41.436Z,4.60
2023-04-04T21:39:16.639Z,3.80
2023-04-04T21:41:45.877Z,4.70
2023-04-04T21:44:14.774Z,5.60
2023-04-04T21:46:45.054Z,4.70
2023-04-04T21:49:13.893Z,5.30
2023-04-04T21:51:43.280Z,4.80
2023-04-04T21:54:11.684Z,4.20
2023-04-04T21:56:40.883Z,5.40
2023-04-04T21:59:09.665Z,4.70
2023-04-04T22:01:38.628Z,4.50
2023-04-04T22:04:08.369Z,4.30
2023-04-04T22:09:04.601Z,4.50
2023-04-04T22:11:39.049Z,4.80
2023-04-04T22:14:08.273Z,4.80
2023-04-04T22:16:40.313Z,3.60
2023-04-04T22:19:11.917Z,3.40
2023-04-04T22:21:48.485Z,3.60
2023-04-04T22:24:18.809Z,3.60
2023-04-04T22:26:47.630Z,4.20
2023-04-04T22:29:16.621Z,4.10
2023-04-04T22:31:46.389Z,3.30
2023-04-04T22:34:15.342Z,3.50
2023-04-04T22:36:46.480Z,4.00
2023-04-04T22:39:16.443Z,3.50
2023-04-04T22:41:45.178Z,2.60
2023-04-04T22:44:14.223Z,3.90
2023-04-04T22:46:42.672Z,3.30
2023-04-04T22:49:16.464Z,4.80
2023-04-04T22:51:46.107Z,3.70
2023-04-04T22:54:16.100Z,3.60
2023-04-04T22:56:45.041Z,4.30
2023-04-04T22:59:18.190Z,4.00
2023-04-04T23:01:47.643Z,3.40
2023-04-04T23:04:18.276Z,3.10
2023-04-04T23:06:46.801Z,3.60
2023-04-04T23:09:16.304Z,3.60
2023-04-04T23:11:47.241Z,3.70
2023-04-04T23:14:20.228Z,3.90
2023-04-04T23:16:49.325Z,2.80
2023-04-04T23:19:17.908Z,4.00
2023-04-04T23:21:49.796Z,2.90
2023-04-04T23:24:18.816Z,2.80
2023-04-04T23:26:47.249Z,3.20
2023-04-04T23:29:16.138Z,2.90
2023-04-04T23:31:44.629Z,2.60
2023-04-04T23:34:13.206Z,2.50
2023-04-04T23:36:41.689Z,3.00
2023-04-04T23:39:12.112Z,3.00
2023-04-04T23:41:41.519Z,3.00
2023-04-04T23:44:09.795Z,2.20
2023-04-04T23:46:40.184Z,2.60
2023-04-04T23:49:11.162Z,2.40
2023-04-04T23:51:45.378Z,2.60
2023-04-04T23:54:14.273Z,2.60
2023-04-04T23:56:42.863Z,3.10
2023-04-04T23:59:11.743Z,2.10
